createdAt,value
2023-05-22T00:01:56.723Z,101499.28
2023-05-22T00:06:58.678Z,101499.22
2023-05-22T00:12:00.539Z,101485.16
2023-05-22T00:17:02.375Z,101482.56
2023-05-22T00:22:09.520Z,101487.47
2023-05-22T00:27:11.574Z,101485.94
2023-05-22T00:32:13.204Z,101490.03
2023-05-22T00:37:14.889Z,101489.75
2023-05-22T00:42:17.192Z,101496.81
2023-05-22T00:47:21.285Z,101497.81
2023-05-22T00:52:23.424Z,101507.91
2023-05-22T00:57:25.854Z,101508.66
2023-05-22T01:02:29.187Z,101502.22
2023-05-22T01:07:30.929Z,101489.03
2023-05-22T01:12:50.628Z,101477.50
2023-05-22T01:17:53.211Z,101477.94
2023-05-22T01:23:22.956Z,101467.63
2023-05-22T01:29:12.449Z,101479.91
2023-05-22T01:34:19.418Z,101455.56
2023-05-22T01:39:22.795Z,101439.59
2023-05-22T01:44:25.239Z,101435.94
2023-05-22T01:49:28.458Z,101415.81
2023-05-22T01:54:39.880Z,101390.59
2023-05-22T01:59:49.622Z,101395.56
2023-05-22T02:05:03.956Z,101375.69
2023-05-22T02:10:10.469Z,101375.69
2023-05-22T02:15:12.762Z,101387.44
2023-05-22T02:20:15.785Z,101371.59
2023-05-22T02:25:21.452Z,101377.94
2023-05-22T02:30:23.295Z,101371.53
2023-05-22T02:35:26.552Z,101370.28
2023-05-22T02:40:28.526Z,101368.47
2023-05-22T02:45:31.338Z,101361.41
2023-05-22T02:50:33.000Z,101368.00
2023-05-22T02:55:34.803Z,101366.13
2023-05-22T03:00:38.260Z,101356.13
2023-05-22T03:05:41.133Z,101360.22
2023-05-22T03:10:44.061Z,101357.03
2023-05-22T03:15:45.713Z,101353.41
2023-05-22T03:20:50.421Z,101354.94
2023-05-22T03:25:52.457Z,101361.25
2023-05-22T03:30:54.627Z,101360.41
2023-05-22T03:36:01.297Z,101353.34
2023-05-22T03:41:03.177Z,101356.91
2023-05-22T03:46:05.166Z,101361.19
2023-05-22T03:51:10.017Z,101353.53
2023-05-22T03:56:11.880Z,101356.00
2023-05-22T04:01:13.857Z,101361.56
2023-05-22T04:06:15.691Z,101358.72
2023-05-22T04:11:20.188Z,101369.72
2023-05-22T04:16:22.436Z,101362.94
2023-05-22T04:21:24.764Z,101382.38
2023-05-22T04:26:29.702Z,101362.44
2023-05-22T04:31:33.325Z,101391.00
2023-05-22T04:36:35.958Z,101391.47
2023-05-22T04:41:38.238Z,101389.38
2023-05-22T04:46:40.661Z,101388.09
2023-05-22T04:51:42.898Z,101406.53
2023-05-22T04:56:44.828Z,101403.34
2023-05-22T05:01:48.376Z,101397.63
2023-05-22T05:06:50.049Z,101397.63
2023-05-22T05:11:53.060Z,101389.50
2023-05-22T05:16:54.942Z,101400.22
2023-05-22T05:21:56.611Z,101404.31
2023-05-22T05:26:59.614Z,101402.88
2023-05-22T05:32:01.704Z,101405.69
2023-05-22T05:37:12.894Z,101407.88
2023-05-22T05:42:14.993Z,101416.28
2023-05-22T05:47:18.301Z,101414.44
2023-05-22T05:52:20.253Z,101415.97
2023-05-22T05:57:23.381Z,101412.53
2023-05-22T06:02:26.766Z,101402.97
2023-05-22T06:07:32.176Z,101404.66
2023-05-22T06:12:34.944Z,101431.41
2023-05-22T06:17:37.619Z,101433.66
2023-05-22T06:22:40.238Z,101452.97
2023-05-22T06:27:42.980Z,101454.34
2023-05-22T06:32:46.971Z,101460.03
2023-05-22T06:37:49.884Z,101453.69
2023-05-22T06:42:53.038Z,101444.22
2023-05-22T06:48:35.140Z,101447.16
2023-05-22T06:54:06.777Z,101446.78
2023-05-22T06:59:10.622Z,101435.25
2023-05-22T07:04:32.542Z,101434.00
2023-05-22T07:09:56.607Z,101441.78
2023-05-22T07:15:00.231Z,101447.84
2023-05-22T07:20:03.588Z,101457.31
2023-05-22T07:25:09.528Z,101452.50
2023-05-22T07:30:11.963Z,101464.50
2023-05-22T07:35:15.521Z,101467.75
2023-05-22T07:40:19.531Z,101467.59
2023-05-22T07:45:21.822Z,101473.03
2023-05-22T07:50:26.663Z,101468.81
2023-05-22T07:55:28.569Z,101475.28
2023-05-22T08:00:31.229Z,101471.41
2023-05-22T08:05:32.924Z,101466.22
2023-05-22T08:10:52.194Z,101468.81
2023-05-22T08:16:00.138Z,101474.69
2023-05-22T08:21:02.878Z,101479.34
2023-05-22T08:26:06.075Z,101478.44
2023-05-22T08:31:09.826Z,101483.19
2023-05-22T08:36:11.507Z,101493.16
2023-05-22T08:41:13.851Z,101485.66
2023-05-22T08:46:16.322Z,101477.09
2023-05-22T08:51:19.964Z,101483.00
2023-05-22T08:56:23.166Z,101479.19
2023-05-22T09:01:25.073Z,101474.84
2023-05-22T09:06:29.018Z,101475.09
2023-05-22T09:11:30.828Z,101470.25
2023-05-22T09:16:32.627Z,101480.41
2023-05-22T09:21:36.952Z,101474.25
2023-05-22T09:26:40.603Z,101462.41
2023-05-22T09:31:43.378Z,101468.63
2023-05-22T09:36:46.604Z,101472.97
2023-05-22T09:41:51.159Z,101476.06
2023-05-22T09:46:54.670Z,101478.81
2023-05-22T09:51:57.577Z,101467.50
2023-05-22T09:57:00.689Z,101465.53
2023-05-22T10:02:02.875Z,101463.88
2023-05-22T10:07:05.111Z,101463.97
2023-05-22T10:12:10.850Z,101460.41
2023-05-22T10:17:12.893Z,101457.91
2023-05-22T10:22:20.878Z,101459.13
2023-05-22T10:27:22.558Z,101463.03
2023-05-22T10:32:35.582Z,101455.72
2023-05-22T10:37:53.370Z,101440.94
2023-05-22T10:43:04.054Z,101432.06
2023-05-22T10:48:07.996Z,101427.91
2023-05-22T10:53:26.829Z,101435.94
2023-05-22T10:58:28.548Z,101437.03
2023-05-22T11:04:00.354Z,101431.78
2023-05-22T11:09:26.564Z,101430.25
2023-05-22T11:14:29.165Z,101417.81
2023-05-22T11:19:30.884Z,101427.75
2023-05-22T11:24:36.925Z,101431.41
2023-05-22T11:29:44.524Z,101428.03
2023-05-22T11:34:52.426Z,101425.88
2023-05-22T11:40:04.791Z,101433.09
2023-05-22T11:45:07.081Z,101442.47
2023-05-22T11:50:12.975Z,101438.94
2023-05-22T11:55:14.708Z,101435.84
2023-05-22T12:00:17.197Z,101440.69
2023-05-22T12:05:25.155Z,101447.63
2023-05-22T12:10:26.907Z,101453.00
2023-05-22T12:15:28.540Z,101467.88
2023-05-22T12:20:31.280Z,101457.13
2023-05-22T12:25:37.332Z,101454.38
2023-05-22T12:30:42.501Z,101465.69
2023-05-22T12:35:44.171Z,101469.69
2023-05-22T12:40:45.806Z,101457.19
2023-05-22T12:45:47.497Z,101457.25
2023-05-22T12:50:52.250Z,101463.66
2023-05-22T12:55:53.909Z,101463.50
2023-05-22T13:00:55.740Z,101459.81
2023-05-22T13:05:57.373Z,101465.28
2023-05-22T13:10:59.308Z,101480.19
2023-05-22T13:16:01.078Z,101482.00
2023-05-22T13:21:02.804Z,101477.31
2023-05-22T13:26:04.539Z,101495.78
2023-05-22T13:31:06.285Z,101490.59
2023-05-22T13:36:08.119Z,101489.72
2023-05-22T13:41:09.855Z,101490.69
2023-05-22T13:46:11.646Z,101503.94
2023-05-22T13:51:13.407Z,101501.63
2023-05-22T13:56:15.078Z,101502.69
2023-05-22T14:01:16.740Z,101507.31
2023-05-22T14:06:19.397Z,101507.63
2023-05-22T14:11:22.429Z,101506.09
2023-05-22T14:16:24.097Z,101513.63
2023-05-22T14:21:25.750Z,101513.72
2023-05-22T14:26:27.388Z,101510.88
2023-05-22T14:31:29.453Z,101521.34
2023-05-22T14:36:31.300Z,101514.22
2023-05-22T14:41:34.391Z,101526.84
2023-05-22T14:46:36.372Z,101524.00
2023-05-22T14:51:38.661Z,101532.19
2023-05-22T14:56:40.789Z,101533.09
2023-05-22T15:01:42.688Z,101538.38
2023-05-22T15:06:46.040Z,101534.34
2023-05-22T15:11:49.800Z,101542.16
2023-05-22T15:16:51.581Z,101537.75
2023-05-22T15:21:54.623Z,101535.31
2023-05-22T15:26:56.927Z,101537.16
2023-05-22T15:31:58.677Z,101532.03
2023-05-22T15:37:00.415Z,101533.88
2023-05-22T15:42:06.396Z,101540.84
2023-05-22T15:47:08.897Z,101547.91
2023-05-22T15:52:10.602Z,101555.81
2023-05-22T15:57:12.250Z,101549.84
2023-05-22T16:02:14.976Z,101566.56
2023-05-22T16:07:20.241Z,101556.06
2023-05-22T16:12:22.288Z,101576.19
2023-05-22T16:17:24.065Z,101590.63
2023-05-22T16:22:36.352Z,101591.72
2023-05-22T16:27:51.946Z,101591.84
2023-05-22T16:32:53.765Z,101585.97
2023-05-22T16:37:55.524Z,101589.41
2023-05-22T16:42:57.251Z,101587.69
2023-05-22T16:47:59.028Z,101592.16
2023-05-22T16:53:00.949Z,101587.97
2023-05-22T16:58:02.720Z,101579.97
2023-05-22T17:03:04.481Z,101589.03
2023-05-22T17:08:06.678Z,101590.13
2023-05-22T17:13:08.734Z,101592.41
2023-05-22T17:18:11.653Z,101600.56
2023-05-22T17:23:14.243Z,101598.28
2023-05-22T17:28:16.551Z,101596.91
2023-05-22T17:33:19.632Z,101592.13
2023-05-22T17:38:21.961Z,101603.28
2023-05-22T17:43:23.926Z,101599.50
2023-05-22T17:48:27.465Z,101610.97
2023-05-22T17:53:34.280Z,101618.38
2023-05-22T17:58:36.535Z,101616.31
2023-05-22T18:03:38.234Z,101618.06
2023-05-22T18:08:40.070Z,101612.19
2023-05-22T18:13:41.834Z,101613.81
2023-05-22T18:18:43.551Z,101613.31
2023-05-22T18:23:45.178Z,101612.66
2023-05-22T18:28:49.580Z,101615.91
2023-05-22T18:33:52.406Z,101621.75
2023-05-22T18:38:54.046Z,101633.56
2023-05-22T18:43:55.763Z,101661.31
2023-05-22T18:48:57.398Z,101661.53
2023-05-22T18:53:59.323Z,101659.53
2023-05-22T18:59:01.073Z,101661.69
2023-05-22T19:04:06.034Z,101675.75
2023-05-22T19:09:12.057Z,101680.88
2023-05-22T19:14:14.388Z,101691.59
2023-05-22T19:19:16.280Z,101697.38
2023-05-22T19:24:17.967Z,101712.66
2023-05-22T19:29:19.858Z,101713.72
2023-05-22T19:34:21.565Z,101725.03
2023-05-22T19:39:26.074Z,101721.97
2023-05-22T19:44:30.698Z,101740.53
2023-05-22T19:49:36.781Z,101746.44
2023-05-22T19:54:38.842Z,101753.78
2023-05-22T19:59:40.629Z,101759.53
2023-05-22T20:04:43.501Z,101771.34
2023-05-22T20:09:45.294Z,101779.59
2023-05-22T20:14:47.182Z,101782.72
2023-05-22T20:19:51.229Z,101789.09
2023-05-22T20:24:53.359Z,101795.31
2023-05-22T20:29:56.590Z,101797.81
2023-05-22T20:34:59.796Z,101813.34
2023-05-22T20:40:09.402Z,101813.28
2023-05-22T20:45:13.570Z,101814.41
2023-05-22T20:50:17.105Z,101832.47
2023-05-22T20:55:20.915Z,101827.88
2023-05-22T21:00:22.910Z,101840.94
2023-05-22T21:05:25.818Z,101832.22
2023-05-22T21:10:27.505Z,101850.13
2023-05-22T21:15:29.094Z,101849.28
2023-05-22T21:20:30.833Z,101863.72
2023-05-22T21:25:32.573Z,101853.63
2023-05-22T21:30:34.566Z,101854.31
2023-05-22T21:35:36.515Z,101860.63
2023-05-22T21:40:40.547Z,101865.72
2023-05-22T21:45:42.464Z,101871.66
2023-05-22T21:50:44.259Z,101870.44
2023-05-22T21:55:45.902Z,101870.13
2023-05-22T22:00:49.837Z,101879.63
2023-05-22T22:05:51.707Z,101881.16
2023-05-22T22:10:53.357Z,101883.81
2023-05-22T22:15:57.130Z,101886.28
2023-05-22T22:21:02.121Z,101881.41
2023-05-22T22:26:03.836Z,101895.69
2023-05-22T22:31:05.505Z,101891.91
2023-05-22T22:36:07.376Z,101883.25
2023-05-22T22:41:10.591Z,101892.03
2023-05-22T22:46:12.290Z,101884.84
2023-05-22T22:51:14.530Z,101890.22
2023-05-22T22:56:16.234Z,101888.56
2023-05-22T23:01:19.207Z,101888.13
2023-05-22T23:06:21.106Z,101881.56
2023-05-22T23:11:23.358Z,101898.53
2023-05-22T23:16:25.857Z,101897.00
2023-05-22T23:21:27.625Z,101888.38
2023-05-22T23:26:29.247Z,101895.13
2023-05-22T23:31:32.327Z,101888.88
2023-05-22T23:36:34.199Z,101894.59
2023-05-22T23:41:35.871Z,101897.44
2023-05-22T23:46:39.744Z,101905.81
2023-05-22T23:51:41.673Z,101900.31
2023-05-22T23:56:45.032Z,101902.72
